createdAt,value
2023-05-21T00:00:21.592Z,15.00
2023-05-21T00:00:53.816Z,14.20
2023-05-21T00:01:25.819Z,14.20
2023-05-21T00:01:59.996Z,14.20
2023-05-21T00:02:32.105Z,14.20
2023-05-21T00:03:04.150Z,14.70
2023-05-21T00:03:36.559Z,14.20
2023-05-21T00:04:08.795Z,14.20
2023-05-21T00:04:41.213Z,14.60
2023-05-21T00:05:15.181Z,14.10
2023-05-21T00:05:47.293Z,14.70
2023-05-21T00:06:21.138Z,14.60
2023-05-21T00:06:53.075Z,14.10
2023-05-21T00:07:25.419Z,14.30
2023-05-21T00:07:57.234Z,14.90
2023-05-21T00:08:29.084Z,15.40
2023-05-21T00:09:00.936Z,15.30
2023-05-21T00:09:32.778Z,14.30
2023-05-21T00:10:05.134Z,14.50
2023-05-21T00:10:36.937Z,14.20
2023-05-21T00:11:41.234Z,14.10
2023-05-21T00:12:13.285Z,14.10
2023-05-21T00:12:45.113Z,14.30
2023-05-21T00:13:17.055Z,14.10
2023-05-21T00:13:48.835Z,15.20
2023-05-21T00:14:20.796Z,15.50
2023-05-21T00:14:52.668Z,15.10
2023-05-21T00:15:24.462Z,15.10
2023-05-21T00:15:56.301Z,13.30
2023-05-21T00:16:28.166Z,14.10
2023-05-21T00:17:00.028Z,15.00
2023-05-21T00:17:32.579Z,15.70
2023-05-21T00:18:05.126Z,14.60
2023-05-21T00:18:39.447Z,14.00
2023-05-21T00:19:11.297Z,14.00
2023-05-21T00:19:43.190Z,13.90
2023-05-21T00:20:16.241Z,13.90
2023-05-21T00:20:48.128Z,16.90
2023-05-21T00:21:23.083Z,15.10
2023-05-21T00:21:55.934Z,13.90
2023-05-21T00:22:27.762Z,13.90
2023-05-21T00:23:02.664Z,14.70
2023-05-21T00:23:36.535Z,14.80
2023-05-21T00:24:08.510Z,14.00
2023-05-21T00:24:40.323Z,15.00
2023-05-21T00:25:12.369Z,13.80
2023-05-21T00:25:45.413Z,13.60
2023-05-21T00:26:17.189Z,13.90
2023-05-21T00:26:48.985Z,15.00
2023-05-21T00:27:20.838Z,15.10
2023-05-21T00:27:52.667Z,13.90
2023-05-21T00:28:56.794Z,13.80
2023-05-21T00:29:30.120Z,13.50
2023-05-21T00:30:02.595Z,13.70
2023-05-21T00:30:34.735Z,13.60
2023-05-21T00:31:06.584Z,13.60
2023-05-21T00:31:38.421Z,13.50
2023-05-21T00:32:10.554Z,13.70
2023-05-21T00:32:42.685Z,13.70
2023-05-21T00:33:14.662Z,14.00
2023-05-21T00:33:46.729Z,13.60
2023-05-21T00:34:18.498Z,15.00
2023-05-21T00:34:50.441Z,13.70
2023-05-21T00:35:22.307Z,14.30
2023-05-21T00:35:54.257Z,13.40
2023-05-21T00:36:26.593Z,13.70
2023-05-21T00:37:34.078Z,13.60
2023-05-21T00:38:07.401Z,14.10
2023-05-21T00:38:39.190Z,14.70
2023-05-21T00:39:11.809Z,13.60
2023-05-21T00:39:43.660Z,13.60
2023-05-21T00:40:16.349Z,14.00
2023-05-21T00:40:48.766Z,14.00
2023-05-21T00:41:22.936Z,14.00
2023-05-21T00:41:56.878Z,13.60
2023-05-21T00:42:30.695Z,15.90
2023-05-21T00:43:03.412Z,14.10
2023-05-21T00:43:35.200Z,14.60
2023-05-21T00:44:07.662Z,14.10
2023-05-21T00:44:40.201Z,13.50
2023-05-21T00:45:12.520Z,13.50
2023-05-21T00:45:46.566Z,13.60
2023-05-21T00:46:22.395Z,13.30
2023-05-21T00:46:54.424Z,13.50
2023-05-21T00:47:29.582Z,13.20
2023-05-21T00:48:02.755Z,13.30
2023-05-21T00:48:35.237Z,13.50
2023-05-21T00:49:07.519Z,13.40
2023-05-21T00:49:39.870Z,13.40
2023-05-21T00:50:12.169Z,13.50
2023-05-21T00:50:44.857Z,12.70
2023-05-21T00:51:18.412Z,13.80
2023-05-21T00:51:51.892Z,13.40
2023-05-21T00:52:26.796Z,13.40
2023-05-21T00:52:59.671Z,13.30
2023-05-21T00:53:34.971Z,13.30
2023-05-21T00:54:08.191Z,13.10
2023-05-21T00:54:40.172Z,15.40
2023-05-21T00:55:12.498Z,13.30
2023-05-21T00:55:44.664Z,14.00
2023-05-21T00:56:16.780Z,13.30
2023-05-21T00:56:49.048Z,13.40
2023-05-21T00:57:22.923Z,13.80
2023-05-21T00:57:54.900Z,17.10
2023-05-21T00:58:27.375Z,13.10
2023-05-21T00:58:59.644Z,13.30
2023-05-21T00:59:33.564Z,14.80
2023-05-21T01:00:10.388Z,13.30
2023-05-21T01:00:44.185Z,13.40
2023-05-21T01:01:16.138Z,12.80
2023-05-21T01:01:55.860Z,15.30
2023-05-21T01:02:27.986Z,13.30
2023-05-21T01:03:02.841Z,14.90
2023-05-21T01:03:38.758Z,13.30
2023-05-21T01:04:13.165Z,14.30
2023-05-21T01:04:47.898Z,14.50
2023-05-21T01:05:19.793Z,13.30
2023-05-21T01:05:53.148Z,13.30
2023-05-21T01:06:24.977Z,13.30
2023-05-21T01:06:58.496Z,14.50
2023-05-21T01:07:30.643Z,13.30
2023-05-21T01:08:03.708Z,13.20
2023-05-21T01:08:37.616Z,13.50
2023-05-21T01:09:09.961Z,14.30
2023-05-21T01:09:43.317Z,14.40
2023-05-21T01:10:15.419Z,14.40
2023-05-21T01:10:49.016Z,15.60
2023-05-21T01:11:21.938Z,13.30
2023-05-21T01:11:56.295Z,14.60
2023-05-21T01:12:30.925Z,13.20
2023-05-21T01:13:03.054Z,12.70
2023-05-21T01:13:38.813Z,13.10
2023-05-21T01:14:13.145Z,13.10
2023-05-21T01:14:45.893Z,13.20
2023-05-21T01:15:17.945Z,14.90
2023-05-21T01:15:51.132Z,13.20
2023-05-21T01:16:23.230Z,13.70
2023-05-21T01:16:55.315Z,13.00
2023-05-21T01:17:29.818Z,13.10
2023-05-21T01:18:02.017Z,13.90
2023-05-21T01:18:35.327Z,13.10
2023-05-21T01:19:10.426Z,13.10
2023-05-21T01:19:44.702Z,13.10
2023-05-21T01:20:19.545Z,13.40
2023-05-21T01:20:53.683Z,13.10
2023-05-21T01:21:28.404Z,13.00
2023-05-21T01:22:07.882Z,14.00
2023-05-21T01:22:49.370Z,13.00
2023-05-21T01:23:21.372Z,13.90
2023-05-21T01:23:53.230Z,12.80
2023-05-21T01:24:25.030Z,13.00
2023-05-21T01:24:57.166Z,13.00
2023-05-21T01:25:28.987Z,13.00
2023-05-21T01:26:00.800Z,13.00
2023-05-21T01:26:33.754Z,13.00
2023-05-21T01:27:07.706Z,13.00
2023-05-21T01:27:39.679Z,12.60
2023-05-21T01:28:12.784Z,12.90
2023-05-21T01:28:44.600Z,12.90
2023-05-21T01:29:16.567Z,13.00
2023-05-21T01:29:48.435Z,12.90
2023-05-21T01:30:22.463Z,12.90
2023-05-21T01:30:56.378Z,12.80
2023-05-21T01:31:37.673Z,12.90
2023-05-21T01:32:18.930Z,13.00
2023-05-21T01:33:13.184Z,13.00
2023-05-21T01:33:52.019Z,12.90
2023-05-21T01:34:34.718Z,13.60
2023-05-21T01:35:22.088Z,12.80
2023-05-21T01:36:08.678Z,16.60
2023-05-21T01:36:52.372Z,12.80
2023-05-21T01:37:29.941Z,12.50
2023-05-21T01:38:27.137Z,12.70
2023-05-21T01:39:14.691Z,12.70
2023-05-21T01:40:01.442Z,12.50
2023-05-21T01:40:39.823Z,12.70
2023-05-21T01:41:13.397Z,12.70
2023-05-21T01:41:47.152Z,12.60
2023-05-21T01:42:22.470Z,14.30
2023-05-21T01:43:29.245Z,12.60
2023-05-21T01:44:03.471Z,13.90
2023-05-21T01:44:36.744Z,13.10
2023-05-21T01:45:09.558Z,12.20
2023-05-21T01:45:45.078Z,12.30
2023-05-21T01:46:23.185Z,12.40
2023-05-21T01:46:58.507Z,12.10
2023-05-21T01:47:33.011Z,12.40
2023-05-21T01:48:07.832Z,12.10
2023-05-21T01:48:40.817Z,14.00
2023-05-21T01:49:13.359Z,13.20
2023-05-21T01:49:46.207Z,12.30
2023-05-21T01:50:19.019Z,12.50
2023-05-21T01:50:52.922Z,12.20
2023-05-21T01:51:26.134Z,12.40
2023-05-21T01:51:58.051Z,12.30
2023-05-21T01:52:29.907Z,12.10
2023-05-21T01:53:03.724Z,12.30
2023-05-21T01:53:38.723Z,12.30
2023-05-21T01:54:10.706Z,13.00
2023-05-21T01:55:15.062Z,12.30
2023-05-21T01:55:46.971Z,12.40
2023-05-21T01:56:18.817Z,12.30
2023-05-21T01:56:50.899Z,12.40
2023-05-21T01:57:23.218Z,12.30
2023-05-21T01:57:56.322Z,12.30
2023-05-21T01:58:28.611Z,12.30
2023-05-21T01:59:00.705Z,12.30
2023-05-21T01:59:33.138Z,12.30
2023-05-21T02:01:52.287Z,12.40
2023-05-21T02:02:56.854Z,12.40
2023-05-21T02:03:30.888Z,12.40
2023-05-21T02:04:03.150Z,12.40
2023-05-21T02:06:45.093Z,12.50
2023-05-21T02:08:57.545Z,12.50
2023-05-21T02:09:29.370Z,12.40
2023-05-21T02:10:33.462Z,12.30
2023-05-21T02:11:05.530Z,12.40
2023-05-21T02:12:43.171Z,12.30
2023-05-21T02:13:15.815Z,12.20
2023-05-21T02:13:47.689Z,12.30
2023-05-21T02:14:20.491Z,12.20
2023-05-21T02:15:24.954Z,12.30
2023-05-21T02:15:57.034Z,12.30
2023-05-21T02:16:29.255Z,12.30
2023-05-21T02:17:38.582Z,12.20
2023-05-21T02:18:18.474Z,12.10
2023-05-21T02:19:29.347Z,12.20
2023-05-21T02:21:52.509Z,12.20
2023-05-21T02:22:56.927Z,12.10
2023-05-21T02:25:41.241Z,12.20
2023-05-21T04:10:20.758Z,11.00
2023-05-21T04:10:53.663Z,11.00
2023-05-21T09:20:17.460Z,12.90
2023-05-21T09:20:56.515Z,13.10
2023-05-21T09:21:31.478Z,13.20
2023-05-21T09:22:07.835Z,13.00
2023-05-21T09:22:45.299Z,10.30
2023-05-21T11:31:26.776Z,16.10
2023-05-21T11:32:02.899Z,16.10
2023-05-21T11:32:58.637Z,16.40
2023-05-21T11:33:30.755Z,16.00
2023-05-21T11:34:19.765Z,16.00
2023-05-21T11:34:51.828Z,16.00
2023-05-21T11:35:27.087Z,15.90
2023-05-21T11:36:00.137Z,16.00
2023-05-21T11:36:33.033Z,16.00
2023-05-21T11:37:18.531Z,16.10
2023-05-21T11:37:54.015Z,16.00
2023-05-21T11:38:30.069Z,16.00
2023-05-21T11:39:17.913Z,16.30
2023-05-21T11:39:51.272Z,16.00
2023-05-21T11:40:30.513Z,15.90
2023-05-21T11:41:04.286Z,16.40
2023-05-21T11:42:00.460Z,16.00
2023-05-21T11:42:38.750Z,16.00
2023-05-21T11:43:10.644Z,16.00
2023-05-21T11:43:44.065Z,16.10
2023-05-21T11:44:15.979Z,16.10
2023-05-21T11:44:48.751Z,16.00
2023-05-21T11:45:23.059Z,16.10
2023-05-21T11:45:55.499Z,16.10
2023-05-21T11:46:28.335Z,16.10
2023-05-21T11:47:00.627Z,16.40
2023-05-21T11:47:33.181Z,16.00
2023-05-21T11:48:06.390Z,16.10
2023-05-21T11:48:39.347Z,16.10
2023-05-21T11:49:11.858Z,16.10
2023-05-21T11:49:44.520Z,16.40
2023-05-21T11:50:17.422Z,16.30
2023-05-21T11:50:49.309Z,16.20
2023-05-21T11:51:21.602Z,16.10
2023-05-21T11:51:53.589Z,16.20
2023-05-21T11:52:26.819Z,16.20
2023-05-21T11:52:59.865Z,16.20
2023-05-21T11:53:31.769Z,16.50
2023-05-21T11:54:03.892Z,16.20
2023-05-21T11:54:48.629Z,16.20
2023-05-21T11:55:25.779Z,16.20
2023-05-21T11:55:58.155Z,16.40
2023-05-21T11:56:31.867Z,16.30
2023-05-21T11:57:07.825Z,16.30
2023-05-21T11:57:42.858Z,16.20
2023-05-21T11:58:48.356Z,16.30
2023-05-21T11:59:20.585Z,16.00
2023-05-21T11:59:53.133Z,16.30
2023-05-21T12:00:31.211Z,16.30
2023-05-21T12:01:03.122Z,16.30
2023-05-21T12:01:34.920Z,16.40
2023-05-21T12:02:07.529Z,16.40
2023-05-21T12:02:44.242Z,16.40
2023-05-21T12:03:19.767Z,16.30
2023-05-21T12:03:51.806Z,16.40
2023-05-21T12:04:23.713Z,16.40
2023-05-21T12:05:00.030Z,16.40
2023-05-21T12:05:31.979Z,16.40
2023-05-21T12:06:06.797Z,16.50
2023-05-21T12:06:42.402Z,16.50
2023-05-21T12:07:16.836Z,16.50
2023-05-21T12:07:50.461Z,16.50
2023-05-21T12:08:26.954Z,16.50
2023-05-21T12:08:58.952Z,16.50
2023-05-21T12:09:30.904Z,16.50
2023-05-21T12:10:02.692Z,16.40
2023-05-21T12:10:34.695Z,16.70
2023-05-21T12:11:06.741Z,16.70
2023-05-21T12:11:41.921Z,16.60
2023-05-21T12:12:21.541Z,16.70
2023-05-21T12:12:56.873Z,16.50
2023-05-21T12:13:29.805Z,16.60
2023-05-21T12:14:01.898Z,16.60
2023-05-21T12:14:34.272Z,16.50
2023-05-21T12:15:06.963Z,16.60
2023-05-21T12:15:38.788Z,16.60
2023-05-21T12:16:10.815Z,16.80
2023-05-21T12:16:43.066Z,16.50
2023-05-21T12:17:19.725Z,16.70
2023-05-21T12:17:53.058Z,16.70
2023-05-21T12:18:26.346Z,16.90
2023-05-21T12:18:58.236Z,16.70
2023-05-21T12:19:36.293Z,17.00
2023-05-21T12:20:10.665Z,16.70
2023-05-21T12:20:44.338Z,16.70
2023-05-21T12:21:16.742Z,16.60
2023-05-21T12:21:48.560Z,16.80
2023-05-21T12:22:21.338Z,17.00
2023-05-21T12:22:53.224Z,16.80
2023-05-21T12:23:25.779Z,16.90
2023-05-21T12:23:57.778Z,16.80
2023-05-21T12:24:33.388Z,16.80
2023-05-21T12:25:05.972Z,16.80
2023-05-21T12:25:37.794Z,16.80
2023-05-21T12:26:10.062Z,16.80
2023-05-21T12:26:44.464Z,16.80
2023-05-21T12:27:18.108Z,16.80
2023-05-21T12:27:57.649Z,17.20
2023-05-21T12:28:30.700Z,16.70
2023-05-21T12:29:05.776Z,16.70
2023-05-21T12:29:40.129Z,16.90
2023-05-21T12:30:12.595Z,17.30
2023-05-21T12:30:44.513Z,16.90
2023-05-21T12:31:16.520Z,16.80
2023-05-21T12:31:49.968Z,16.90
2023-05-21T12:32:22.152Z,17.00
2023-05-21T12:33:36.346Z,17.00
2023-05-21T12:34:08.204Z,17.00
2023-05-21T12:34:44.709Z,16.90
2023-05-21T12:35:24.509Z,17.30
2023-05-21T12:35:56.814Z,17.00
2023-05-21T12:36:31.865Z,17.10
2023-05-21T12:37:06.599Z,17.00
2023-05-21T12:37:38.546Z,17.00
2023-05-21T12:38:10.601Z,17.00
2023-05-21T12:38:43.035Z,17.30
2023-05-21T12:39:16.167Z,17.00
2023-05-21T12:39:58.562Z,17.20
2023-05-21T12:40:38.411Z,17.20
2023-05-21T12:41:11.239Z,17.00
2023-05-21T12:41:44.047Z,17.10
2023-05-21T12:42:16.624Z,17.20
2023-05-21T12:42:49.336Z,17.10
2023-05-21T12:43:21.246Z,17.20
2023-05-21T12:43:53.141Z,17.30
2023-05-21T12:44:31.320Z,17.20
2023-05-21T12:45:12.225Z,17.20
2023-05-21T12:45:44.096Z,17.30
2023-05-21T12:46:18.822Z,17.30
2023-05-21T12:46:51.520Z,17.60
2023-05-21T12:47:27.858Z,17.30
2023-05-21T12:48:03.095Z,17.30
2023-05-21T12:48:35.004Z,17.40
2023-05-21T12:49:06.971Z,17.40
2023-05-21T12:49:50.365Z,17.40
2023-05-21T12:50:22.539Z,13.90
2023-05-21T12:50:54.345Z,17.40
2023-05-21T12:51:26.146Z,17.40
2023-05-21T12:51:57.947Z,17.40
2023-05-21T12:52:33.479Z,17.40
2023-05-21T12:53:09.377Z,17.50
2023-05-21T12:53:44.382Z,20.00
2023-05-21T12:54:16.274Z,17.60
2023-05-21T12:54:52.124Z,17.50
2023-05-21T12:55:26.700Z,17.50
2023-05-21T12:56:08.755Z,17.50
2023-05-21T12:56:46.832Z,17.70
2023-05-21T12:57:25.832Z,17.60
2023-05-21T12:58:08.823Z,17.40
2023-05-21T12:58:42.331Z,17.50
2023-05-21T12:59:17.232Z,17.40
2023-05-21T12:59:55.275Z,17.50
2023-05-21T13:00:27.114Z,17.60
2023-05-21T13:00:58.921Z,17.50
2023-05-21T13:01:30.758Z,17.60
2023-05-21T13:02:02.807Z,17.60
2023-05-21T13:02:38.749Z,17.60
2023-05-21T13:03:11.241Z,14.50
2023-05-21T13:03:44.121Z,17.60
2023-05-21T13:04:19.064Z,17.50
2023-05-21T13:05:04.131Z,17.60
2023-05-21T13:05:39.680Z,17.70
2023-05-21T13:06:11.550Z,18.00
2023-05-21T13:06:44.130Z,17.70
2023-05-21T13:07:16.713Z,17.70
2023-05-21T13:07:48.727Z,18.10
2023-05-21T13:08:20.630Z,17.70
2023-05-21T13:08:52.449Z,17.70
2023-05-21T13:09:24.305Z,17.80
2023-05-21T13:09:57.165Z,17.80
2023-05-21T13:10:28.974Z,17.60
2023-05-21T13:11:02.289Z,17.70
2023-05-21T13:11:34.096Z,17.80
2023-05-21T13:12:06.365Z,18.10
2023-05-21T13:12:38.188Z,17.80
2023-05-21T13:13:10.071Z,17.80
2023-05-21T13:13:41.820Z,17.80
2023-05-21T13:14:13.599Z,17.80
2023-05-21T13:14:45.501Z,17.90
2023-05-21T13:15:17.291Z,17.80
2023-05-21T13:15:49.091Z,17.80
2023-05-21T13:16:22.890Z,17.70
2023-05-21T13:16:54.975Z,17.90
2023-05-21T13:17:27.825Z,17.90
2023-05-21T13:18:01.118Z,17.80
2023-05-21T13:18:33.205Z,17.90
2023-05-21T13:19:05.050Z,18.00
2023-05-21T13:19:36.980Z,18.10
2023-05-21T13:20:16.855Z,17.90
2023-05-21T13:20:49.247Z,18.00
2023-05-21T13:21:21.098Z,17.90
2023-05-21T13:21:52.970Z,18.40
2023-05-21T13:22:24.753Z,18.00
2023-05-21T13:22:56.781Z,17.80
2023-05-21T13:23:28.616Z,17.90
2023-05-21T13:24:00.441Z,18.00
2023-05-21T13:24:32.197Z,18.00
2023-05-21T13:25:04.332Z,18.00
2023-05-21T13:25:36.317Z,18.00
2023-05-21T13:26:08.140Z,18.20
2023-05-21T13:26:39.972Z,18.10
2023-05-21T13:27:11.767Z,18.10
2023-05-21T13:27:43.900Z,18.00
2023-05-21T13:28:16.971Z,18.00
2023-05-21T13:28:48.757Z,18.10
2023-05-21T13:29:20.939Z,18.40
2023-05-21T13:29:52.810Z,18.30
2023-05-21T13:30:24.577Z,18.00
2023-05-21T13:30:56.333Z,18.30
2023-05-21T13:31:28.579Z,18.00
2023-05-21T13:32:00.470Z,21.70
2023-05-21T13:32:32.415Z,18.10
2023-05-21T13:33:05.795Z,18.20
2023-05-21T13:33:37.770Z,18.10
2023-05-21T13:34:12.008Z,18.00
2023-05-21T13:34:43.785Z,18.60
2023-05-21T13:35:16.709Z,18.30
2023-05-21T13:35:51.246Z,18.10
2023-05-21T13:36:23.153Z,18.10
2023-05-21T13:36:54.942Z,18.10
2023-05-21T13:37:26.743Z,18.20
2023-05-21T13:37:58.571Z,18.10
2023-05-21T13:38:30.355Z,18.40
2023-05-21T13:39:02.142Z,18.20
2023-05-21T13:39:33.921Z,18.10
2023-05-21T13:40:16.929Z,18.30
2023-05-21T13:40:49.734Z,17.60
2023-05-21T13:41:22.141Z,18.70
2023-05-21T13:41:54.016Z,18.40
2023-05-21T13:42:25.843Z,18.30
2023-05-21T13:42:57.823Z,18.20
2023-05-21T13:43:29.669Z,18.30
2023-05-21T13:44:01.502Z,18.30
2023-05-21T13:44:36.106Z,18.30
2023-05-21T13:45:11.416Z,18.30
2023-05-21T13:45:43.847Z,18.30
2023-05-21T13:46:15.668Z,14.70
2023-05-21T13:46:47.800Z,18.30
2023-05-21T13:47:51.940Z,18.40
2023-05-21T13:48:23.882Z,18.60
2023-05-21T13:48:55.690Z,18.40
2023-05-21T13:49:27.492Z,18.30
2023-05-21T13:49:59.464Z,18.40
2023-05-21T13:50:31.377Z,18.60
2023-05-21T13:51:03.481Z,18.40
2023-05-21T13:51:39.044Z,18.40
2023-05-21T13:52:12.310Z,18.40
2023-05-21T13:52:44.254Z,18.40
2023-05-21T13:53:16.076Z,18.50
2023-05-21T13:53:47.938Z,18.40
2023-05-21T13:54:19.994Z,18.80
2023-05-21T13:54:51.898Z,18.40
2023-05-21T13:55:23.680Z,18.40
2023-05-21T13:55:55.562Z,22.10
2023-05-21T13:56:27.475Z,18.60
2023-05-21T13:56:59.395Z,18.40
2023-05-21T13:57:31.335Z,18.50
2023-05-21T13:58:03.558Z,18.40
2023-05-21T13:58:35.707Z,18.50
2023-05-21T13:59:07.514Z,18.40
2023-05-21T13:59:40.817Z,18.60
2023-05-21T14:00:15.324Z,18.60
2023-05-21T14:00:47.286Z,18.60
2023-05-21T14:01:19.341Z,18.60
2023-05-21T14:01:52.328Z,18.60
2023-05-21T14:02:24.339Z,18.40
2023-05-21T14:02:56.448Z,18.90
2023-05-21T14:03:28.493Z,18.60
2023-05-21T14:04:04.198Z,18.50
2023-05-21T14:04:38.943Z,18.70
2023-05-21T14:05:12.120Z,19.10
2023-05-21T14:05:44.170Z,19.10
2023-05-21T14:06:16.043Z,18.50
2023-05-21T14:06:48.275Z,18.70
2023-05-21T14:07:20.159Z,18.80
2023-05-21T14:07:52.004Z,18.70
2023-05-21T14:08:24.756Z,18.70
2023-05-21T14:08:56.571Z,18.50
2023-05-21T14:09:29.377Z,18.60
2023-05-21T14:10:01.433Z,18.70
2023-05-21T14:10:33.253Z,18.70
2023-05-21T14:11:05.139Z,18.60
2023-05-21T14:11:38.253Z,18.70
2023-05-21T14:12:10.123Z,20.30
2023-05-21T14:12:42.109Z,18.70
2023-05-21T14:13:19.431Z,18.70
2023-05-21T14:13:52.447Z,18.60
2023-05-21T14:14:24.742Z,18.70
2023-05-21T14:14:56.571Z,18.80
2023-05-21T14:15:28.372Z,18.70
2023-05-21T14:16:00.254Z,18.80
2023-05-21T14:16:32.069Z,18.80
2023-05-21T14:17:03.983Z,18.80
2023-05-21T14:17:35.916Z,18.80
2023-05-21T14:18:11.998Z,18.80
2023-05-21T14:18:43.873Z,19.10
2023-05-21T14:19:16.655Z,18.70
2023-05-21T14:19:48.521Z,18.90
2023-05-21T14:20:20.346Z,18.80
2023-05-21T14:20:53.277Z,18.90
2023-05-21T14:21:26.055Z,17.90
2023-05-21T14:21:59.763Z,18.70
2023-05-21T14:22:31.563Z,18.80
2023-05-21T14:23:03.409Z,18.90
2023-05-21T14:23:35.310Z,18.90
2023-05-21T14:24:07.147Z,18.90
2023-05-21T14:24:38.879Z,18.90
2023-05-21T14:25:11.085Z,18.90
2023-05-21T14:25:42.873Z,18.80
2023-05-21T14:26:15.799Z,19.30
2023-05-21T14:26:47.558Z,18.70
2023-05-21T14:27:19.387Z,18.90
2023-05-21T14:27:51.224Z,18.90
2023-05-21T14:28:23.032Z,18.90
2023-05-21T14:28:54.873Z,18.90
2023-05-21T14:29:26.697Z,18.90
2023-05-21T14:29:58.478Z,18.80
2023-05-21T14:30:30.304Z,18.90
2023-05-21T14:31:02.144Z,19.00
2023-05-21T14:31:34.076Z,19.00
2023-05-21T14:32:06.477Z,19.40
2023-05-21T14:32:38.368Z,19.00
2023-05-21T14:33:11.337Z,19.10
2023-05-21T14:33:43.170Z,19.00
2023-05-21T14:34:14.976Z,19.00
2023-05-21T14:34:46.763Z,19.00
2023-05-21T14:35:18.622Z,18.90
2023-05-21T14:35:50.439Z,19.40
2023-05-21T14:36:22.216Z,19.00
2023-05-21T14:36:54.065Z,19.20
2023-05-21T14:37:26.041Z,19.00
2023-05-21T14:37:57.856Z,19.00
2023-05-21T14:38:29.763Z,19.00
2023-05-21T14:39:01.764Z,18.90
2023-05-21T14:39:33.672Z,19.00
2023-05-21T14:40:07.792Z,19.10
2023-05-21T14:40:39.914Z,19.10
2023-05-21T14:41:11.693Z,18.90
2023-05-21T14:41:43.502Z,18.90
2023-05-21T14:42:15.374Z,19.10
2023-05-21T14:42:47.220Z,19.10
2023-05-21T14:43:19.080Z,19.10
2023-05-21T14:43:50.973Z,19.60
2023-05-21T14:44:22.827Z,19.10
2023-05-21T14:44:54.603Z,19.10
2023-05-21T14:45:26.618Z,19.10
2023-05-21T14:45:58.595Z,19.10
2023-05-21T14:46:30.565Z,19.10
2023-05-21T14:47:02.468Z,19.40
2023-05-21T14:47:34.271Z,19.10
2023-05-21T14:48:08.612Z,19.00
2023-05-21T14:48:40.530Z,19.10
2023-05-21T14:49:13.164Z,19.10
2023-05-21T14:49:45.001Z,19.70
2023-05-21T14:50:17.922Z,19.10
2023-05-21T14:50:53.069Z,19.10
2023-05-21T14:51:25.190Z,19.20
2023-05-21T14:51:57.043Z,19.60
2023-05-21T14:52:28.820Z,19.00
2023-05-21T14:53:12.849Z,19.20
2023-05-21T14:53:44.647Z,19.00
2023-05-21T14:54:16.467Z,19.20
2023-05-21T14:54:48.303Z,19.20
2023-05-21T14:55:22.328Z,19.20
2023-05-21T14:55:54.200Z,19.20
2023-05-21T14:56:27.681Z,19.20
2023-05-21T14:56:59.585Z,19.20
2023-05-21T14:57:31.408Z,19.20
2023-05-21T14:58:04.446Z,19.30
2023-05-21T14:58:36.340Z,19.70
2023-05-21T14:59:08.182Z,19.10
2023-05-21T14:59:39.965Z,19.10
2023-05-21T15:00:12.459Z,19.20
2023-05-21T15:00:44.497Z,19.20
2023-05-21T15:01:16.528Z,19.10
2023-05-21T15:01:48.713Z,19.20
2023-05-21T15:02:20.722Z,19.20
2023-05-21T15:02:54.588Z,19.20
2023-05-21T15:03:27.717Z,19.30
2023-05-21T15:03:59.701Z,19.20
2023-05-21T15:04:31.645Z,19.10
2023-05-21T15:05:03.554Z,19.10
2023-05-21T15:05:35.931Z,19.20
2023-05-21T15:06:08.236Z,19.30
2023-05-21T15:06:40.024Z,19.20
2023-05-21T15:07:11.837Z,19.20
2023-05-21T15:07:43.887Z,19.20
2023-05-21T15:08:15.702Z,18.90
2023-05-21T15:08:47.539Z,19.50
2023-05-21T15:09:19.388Z,19.20
2023-05-21T15:09:51.141Z,19.30
2023-05-21T15:10:23.844Z,19.30
2023-05-21T15:10:55.604Z,15.70
2023-05-21T15:11:27.918Z,19.10
2023-05-21T15:11:59.725Z,19.80
2023-05-21T15:12:31.654Z,19.10
2023-05-21T15:13:03.448Z,19.30
2023-05-21T15:13:35.405Z,19.10
2023-05-21T15:14:07.228Z,19.20
2023-05-21T15:14:39.784Z,19.20
2023-05-21T15:15:12.455Z,19.60
2023-05-21T15:15:44.641Z,19.30
2023-05-21T15:16:18.739Z,19.20
2023-05-21T15:16:51.596Z,19.30
2023-05-21T15:17:23.850Z,19.30
2023-05-21T15:17:57.714Z,19.20
2023-05-21T15:18:32.123Z,19.10
2023-05-21T15:19:04.540Z,19.50
2023-05-21T15:19:36.517Z,19.30
2023-05-21T15:20:09.435Z,19.30
2023-05-21T15:20:41.329Z,19.30
2023-05-21T15:21:13.218Z,19.30
2023-05-21T15:21:45.016Z,19.40
2023-05-21T15:22:16.864Z,19.10
2023-05-21T15:22:49.003Z,19.10
2023-05-21T15:23:20.992Z,19.30
2023-05-21T15:23:53.465Z,19.50
2023-05-21T15:24:25.290Z,19.20
2023-05-21T15:24:57.242Z,19.20
2023-05-21T15:25:29.078Z,19.10
2023-05-21T15:26:01.231Z,19.30
2023-05-21T15:26:33.223Z,19.20
2023-05-21T15:27:05.245Z,19.10
2023-05-21T15:27:37.143Z,19.30
2023-05-21T15:28:09.113Z,18.90
2023-05-21T15:28:40.902Z,19.10
2023-05-21T15:29:12.728Z,19.30
2023-05-21T15:29:45.860Z,19.30
2023-05-21T15:30:17.779Z,19.50
2023-05-21T15:30:49.631Z,19.50
2023-05-21T15:31:21.491Z,19.30
2023-05-21T15:31:53.301Z,19.30
2023-05-21T15:32:25.461Z,19.20
2023-05-21T15:32:57.237Z,19.30
2023-05-21T15:33:29.118Z,19.30
2023-05-21T15:34:00.966Z,19.10
2023-05-21T15:34:33.226Z,19.20
2023-05-21T15:35:05.487Z,19.30
2023-05-21T15:35:38.121Z,19.30
2023-05-21T15:36:10.327Z,19.30
2023-05-21T15:36:42.162Z,17.80
2023-05-21T15:37:16.905Z,19.30
2023-05-21T15:37:48.714Z,19.30
2023-05-21T15:38:20.624Z,19.20
2023-05-21T15:38:52.861Z,19.30
2023-05-21T15:39:24.831Z,19.30
2023-05-21T15:39:56.658Z,19.20
2023-05-21T15:40:28.513Z,19.30
2023-05-21T15:41:00.437Z,16.70
2023-05-21T15:41:37.260Z,19.20
2023-05-21T15:42:09.171Z,19.80
2023-05-21T15:42:40.948Z,19.90
2023-05-21T15:43:12.870Z,19.30
2023-05-21T15:43:46.300Z,19.30
2023-05-21T15:44:18.174Z,19.20
2023-05-21T15:44:50.100Z,19.60
2023-05-21T15:45:21.862Z,19.30
2023-05-21T15:45:53.648Z,19.30
2023-05-21T15:46:25.721Z,19.10
2023-05-21T15:46:57.863Z,19.30
2023-05-21T15:47:29.793Z,19.40
2023-05-21T15:48:01.817Z,19.70
2023-05-21T15:48:33.672Z,19.40
2023-05-21T15:49:05.846Z,19.30
2023-05-21T15:49:37.682Z,19.90
2023-05-21T15:50:10.405Z,19.30
2023-05-21T15:50:42.336Z,19.30
2023-05-21T15:51:14.120Z,19.30
2023-05-21T15:51:47.705Z,19.30
2023-05-21T15:52:20.015Z,19.30
2023-05-21T15:52:53.330Z,22.30
2023-05-21T15:53:25.649Z,19.30
2023-05-21T15:53:57.500Z,19.30
2023-05-21T15:54:30.387Z,19.40
2023-05-21T15:55:02.261Z,19.30
2023-05-21T15:55:34.358Z,19.30
2023-05-21T15:56:06.415Z,19.30
2023-05-21T15:56:38.326Z,19.30
2023-05-21T15:57:10.107Z,19.30
2023-05-21T15:57:41.907Z,19.30
2023-05-21T15:58:13.690Z,19.80
2023-05-21T15:58:45.712Z,19.70
2023-05-21T15:59:17.526Z,19.30
2023-05-21T15:59:50.577Z,19.30
2023-05-21T16:00:22.392Z,19.20
2023-05-21T16:00:54.225Z,19.30
2023-05-21T16:01:27.677Z,19.30
2023-05-21T16:01:59.625Z,19.20
2023-05-21T16:02:31.451Z,19.30
2023-05-21T16:03:03.662Z,19.30
2023-05-21T16:03:35.537Z,19.30
2023-05-21T16:04:07.594Z,19.30
2023-05-21T16:04:39.533Z,19.20
2023-05-21T16:05:11.410Z,19.80
2023-05-21T16:05:43.190Z,19.40
2023-05-21T16:06:14.969Z,19.80
2023-05-21T16:06:47.523Z,19.80
2023-05-21T16:07:19.625Z,19.30
2023-05-21T16:08:23.728Z,19.30
2023-05-21T16:08:55.649Z,19.30
2023-05-21T16:09:27.555Z,19.50
2023-05-21T16:09:59.354Z,19.30
2023-05-21T16:10:31.186Z,19.30
2023-05-21T16:11:03.107Z,19.30
2023-05-21T16:11:35.268Z,19.30
2023-05-21T16:12:07.188Z,19.10
2023-05-21T16:12:40.096Z,19.30
2023-05-21T16:13:12.120Z,19.30
2023-05-21T16:13:43.916Z,19.30
2023-05-21T16:14:15.813Z,19.30
2023-05-21T16:14:50.059Z,19.30
2023-05-21T16:15:22.022Z,19.30
2023-05-21T16:15:53.881Z,19.30
2023-05-21T16:16:25.756Z,19.30
2023-05-21T16:16:57.640Z,19.30
2023-05-21T16:17:29.501Z,19.30
2023-05-21T16:18:01.451Z,19.30
2023-05-21T16:18:33.280Z,19.20
2023-05-21T16:19:05.200Z,19.30
2023-05-21T16:19:37.080Z,17.30
2023-05-21T16:20:09.163Z,19.30
2023-05-21T16:20:40.933Z,19.30
2023-05-21T16:21:12.903Z,19.30
2023-05-21T16:21:44.722Z,19.30
2023-05-21T16:22:17.002Z,19.30
2023-05-21T16:22:49.026Z,19.70
2023-05-21T16:23:20.851Z,19.30
2023-05-21T16:23:52.634Z,19.20
2023-05-21T16:24:24.490Z,19.30
2023-05-21T16:24:56.354Z,19.30
2023-05-21T16:25:28.161Z,19.30
2023-05-21T16:26:00.429Z,19.30
2023-05-21T16:26:32.350Z,19.30
2023-05-21T16:27:04.909Z,19.30
2023-05-21T16:27:36.929Z,19.30
2023-05-21T16:28:08.842Z,19.30